createdAt,value
2024-02-06T00:00:44.987Z,100504.19
2024-02-06T00:01:50.304Z,100499.34
2024-02-06T00:02:52.013Z,100505.31
2024-02-06T00:03:55.154Z,100502.41
2024-02-06T00:04:58.283Z,100508.25
2024-02-06T00:06:00.705Z,100505.03
2024-02-06T00:07:02.578Z,100494.50
2024-02-06T00:08:05.220Z,100509.63
2024-02-06T00:09:06.985Z,100502.81
2024-02-06T00:10:09.296Z,100513.19
2024-02-06T00:11:13.224Z,100511.22
2024-02-06T00:12:14.891Z,100510.66
2024-02-06T00:13:16.667Z,100507.44
2024-02-06T00:14:18.314Z,100508.44
2024-02-06T00:15:20.039Z,100511.06
2024-02-06T00:16:22.025Z,100515.34
2024-02-06T00:17:23.743Z,100498.38
2024-02-06T00:18:25.388Z,100508.13
2024-02-06T00:19:27.083Z,100507.44
2024-02-06T00:20:28.901Z,100508.63
2024-02-06T00:21:30.667Z,100509.31
2024-02-06T00:22:32.746Z,100511.41
2024-02-06T00:23:34.605Z,100506.13
2024-02-06T00:24:36.330Z,100500.16
2024-02-06T00:25:38.154Z,100500.47
2024-02-06T00:26:39.847Z,100499.41
2024-02-06T00:27:41.604Z,100503.16
2024-02-06T00:28:43.333Z,100503.94
2024-02-06T00:29:45.114Z,100499.34
2024-02-06T00:30:46.826Z,100505.56
2024-02-06T00:31:48.727Z,100499.88
2024-02-06T00:32:50.504Z,100500.31
2024-02-06T00:33:52.534Z,100502.09
2024-02-06T00:34:58.130Z,100495.63
2024-02-06T00:36:02.484Z,100500.06
2024-02-06T00:37:04.860Z,100501.97
2024-02-06T00:38:06.616Z,100487.41
2024-02-06T00:39:09.217Z,100492.00
2024-02-06T00:40:12.483Z,100493.13
2024-02-06T00:41:14.269Z,100499.34
2024-02-06T00:42:15.994Z,100498.78
2024-02-06T00:43:17.755Z,100493.91
2024-02-06T00:44:20.634Z,100498.63
2024-02-06T00:45:22.471Z,100493.38
2024-02-06T00:46:24.160Z,100495.06
2024-02-06T00:47:25.901Z,100494.47
2024-02-06T00:48:27.688Z,100490.84
2024-02-06T00:49:29.553Z,100492.78
2024-02-06T00:50:31.517Z,100492.31
2024-02-06T00:51:33.241Z,100501.38
2024-02-06T00:52:35.014Z,100499.91
2024-02-06T00:53:37.089Z,100494.09
2024-02-06T00:54:38.794Z,100496.28
2024-02-06T00:55:40.938Z,100484.13
2024-02-06T00:56:42.795Z,100495.22
2024-02-06T00:57:44.477Z,100493.63
2024-02-06T00:58:46.202Z,100487.50
2024-02-06T00:59:47.895Z,100485.16
2024-02-06T01:00:50.524Z,100489.19
2024-02-06T01:01:52.519Z,100496.06
2024-02-06T01:02:54.232Z,100485.50
2024-02-06T01:03:56.024Z,100484.41
2024-02-06T01:04:57.972Z,100486.41
2024-02-06T01:05:59.730Z,100486.69
2024-02-06T01:07:01.586Z,100487.50
2024-02-06T01:08:03.632Z,100484.72
2024-02-06T01:09:05.775Z,100486.50
2024-02-06T01:10:08.609Z,100482.09
2024-02-06T01:11:11.146Z,100486.94
2024-02-06T01:12:12.850Z,100484.81
2024-02-06T01:13:14.584Z,100491.28
2024-02-06T01:14:16.631Z,100495.72
2024-02-06T01:15:18.644Z,100493.03
2024-02-06T01:16:20.688Z,100482.91
2024-02-06T01:17:22.377Z,100486.81
2024-02-06T01:18:24.157Z,100475.47
2024-02-06T01:19:25.962Z,100477.59
2024-02-06T01:20:27.693Z,100482.44
2024-02-06T01:21:29.416Z,100481.63
2024-02-06T01:22:31.223Z,100476.31
2024-02-06T01:23:33.457Z,100471.00
2024-02-06T01:24:35.113Z,100471.16
2024-02-06T01:25:36.956Z,100468.69
2024-02-06T01:26:38.716Z,100475.34
2024-02-06T01:27:40.463Z,100471.56
2024-02-06T01:28:42.216Z,100466.47
2024-02-06T01:29:44.086Z,100471.28
2024-02-06T01:30:45.746Z,100462.13
2024-02-06T01:31:47.506Z,100467.09
2024-02-06T01:32:49.328Z,100460.56
2024-02-06T01:33:51.144Z,100464.59
2024-02-06T01:34:53.014Z,100462.50
2024-02-06T01:35:54.707Z,100459.28
2024-02-06T01:36:56.471Z,100465.88
2024-02-06T01:37:58.162Z,100455.91
2024-02-06T01:38:59.834Z,100459.16
2024-02-06T01:40:01.560Z,100461.66
2024-02-06T01:41:04.404Z,100454.31
2024-02-06T01:42:07.217Z,100451.13
2024-02-06T01:43:09.379Z,100455.41
2024-02-06T01:44:11.688Z,100450.69
2024-02-06T01:45:13.373Z,100450.78
2024-02-06T01:46:15.385Z,100456.41
2024-02-06T01:47:17.149Z,100452.13
2024-02-06T01:48:18.977Z,100457.38
2024-02-06T01:49:22.261Z,100449.75
2024-02-06T01:50:24.335Z,100449.47
2024-02-06T01:51:31.281Z,100452.19
2024-02-06T01:52:33.196Z,100450.53
2024-02-06T01:53:35.670Z,100453.28
2024-02-06T01:54:37.454Z,100444.94
2024-02-06T01:55:40.630Z,100445.09
2024-02-06T01:56:43.197Z,100441.38
2024-02-06T01:57:45.682Z,100445.47
2024-02-06T01:58:47.493Z,100441.31
2024-02-06T01:59:50.071Z,100446.69
2024-02-06T02:00:52.701Z,100442.63
2024-02-06T02:01:55.477Z,100446.47
2024-02-06T02:02:58.055Z,100444.81
2024-02-06T02:04:00.814Z,100441.72
2024-02-06T02:05:04.088Z,100443.66
2024-02-06T02:06:06.631Z,100443.50
2024-02-06T02:07:10.316Z,100448.03
2024-02-06T02:08:12.256Z,100449.00
2024-02-06T02:09:14.058Z,100441.16
2024-02-06T02:10:15.824Z,100441.41
2024-02-06T02:11:18.596Z,100433.41
2024-02-06T02:12:20.274Z,100438.78
2024-02-06T02:13:22.048Z,100439.84
2024-02-06T02:14:24.066Z,100436.88
2024-02-06T02:15:25.827Z,100438.88
2024-02-06T02:16:27.710Z,100444.38
2024-02-06T02:17:29.447Z,100439.38
2024-02-06T02:18:33.465Z,100431.66
2024-02-06T02:19:35.331Z,100427.50
2024-02-06T02:20:37.091Z,100432.03
2024-02-06T02:21:39.873Z,100428.44
2024-02-06T02:22:41.889Z,100425.72
2024-02-06T02:23:47.230Z,100414.25
2024-02-06T02:24:50.662Z,100427.50
2024-02-06T02:25:53.193Z,100423.34
2024-02-06T02:26:55.644Z,100418.94
2024-02-06T02:27:58.823Z,100420.81
2024-02-06T02:29:01.178Z,100415.34
2024-02-06T02:30:04.116Z,100415.84
2024-02-06T02:31:07.611Z,100423.84
2024-02-06T02:32:10.895Z,100422.75
2024-02-06T02:33:12.950Z,100415.34
2024-02-06T02:34:16.152Z,100418.34
2024-02-06T02:35:18.609Z,100408.44
2024-02-06T02:36:20.397Z,100403.19
2024-02-06T02:37:22.120Z,100411.78
2024-02-06T02:38:24.667Z,100412.84
2024-02-06T02:39:28.523Z,100418.81
2024-02-06T02:40:30.213Z,100415.47
2024-02-06T02:41:31.917Z,100423.34
2024-02-06T02:42:33.625Z,100412.50
2024-02-06T02:43:35.397Z,100408.84
2024-02-06T02:44:37.224Z,100416.34
2024-02-06T02:45:38.930Z,100411.78
2024-02-06T02:46:40.642Z,100416.34
2024-02-06T02:47:46.150Z,100414.09
2024-02-06T02:48:47.874Z,100403.72
2024-02-06T02:49:49.887Z,100408.13
2024-02-06T02:50:51.605Z,100413.84
2024-02-06T02:51:54.249Z,100409.69
2024-02-06T02:52:55.958Z,100413.53
2024-02-06T02:53:57.653Z,100407.69
2024-02-06T02:54:59.326Z,100406.28
2024-02-06T02:56:01.151Z,100412.97
2024-02-06T02:57:02.947Z,100408.69
2024-02-06T02:58:06.182Z,100415.50
2024-02-06T02:59:07.824Z,100404.88
2024-02-06T03:00:09.982Z,100417.31
2024-02-06T03:01:11.867Z,100419.56
2024-02-06T03:02:13.804Z,100419.25
2024-02-06T03:03:15.857Z,100421.72
2024-02-06T03:04:17.692Z,100417.56
2024-02-06T03:05:19.407Z,100413.44
2024-02-06T03:06:21.548Z,100416.16
2024-02-06T03:07:23.436Z,100416.97
2024-02-06T03:08:25.170Z,100418.78
2024-02-06T03:09:28.637Z,100422.56
2024-02-06T03:10:30.420Z,100416.66
2024-02-06T03:11:32.137Z,100416.75
2024-02-06T03:12:34.078Z,100420.34
2024-02-06T03:13:37.807Z,100416.75
2024-02-06T03:14:39.517Z,100417.84
2024-02-06T03:15:41.231Z,100417.84
2024-02-06T03:16:42.968Z,100416.03
2024-02-06T03:17:44.758Z,100414.53
2024-02-06T03:18:46.515Z,100411.91
2024-02-06T03:19:48.321Z,100411.66
2024-02-06T03:20:50.001Z,100414.38
2024-02-06T03:21:51.762Z,100412.50
2024-02-06T03:22:53.549Z,100408.06
2024-02-06T03:23:55.200Z,100409.97
2024-02-06T03:24:56.977Z,100410.94
2024-02-06T03:25:58.688Z,100404.66
2024-02-06T03:27:00.370Z,100408.31
2024-02-06T03:28:02.097Z,100409.97
2024-02-06T03:29:03.755Z,100404.03
2024-02-06T03:30:07.107Z,100415.19
2024-02-06T03:31:08.998Z,100411.41
2024-02-06T03:32:11.386Z,100410.94
2024-02-06T03:33:13.521Z,100407.25
2024-02-06T03:34:15.530Z,100413.06
2024-02-06T03:35:17.535Z,100412.31
2024-02-06T03:36:19.314Z,100407.47
2024-02-06T03:37:21.049Z,100409.47
2024-02-06T03:38:22.740Z,100412.31
2024-02-06T03:39:24.372Z,100415.69
2024-02-06T03:40:26.076Z,100408.19
2024-02-06T03:41:27.857Z,100410.69
2024-02-06T03:42:29.559Z,100403.41
2024-02-06T03:43:31.254Z,100409.25
2024-02-06T03:44:32.927Z,100411.16
2024-02-06T03:45:34.734Z,100413.28
2024-02-06T03:46:36.727Z,100412.91
2024-02-06T03:47:38.507Z,100405.34
2024-02-06T03:48:40.239Z,100404.53
2024-02-06T03:49:42.007Z,100407.50
2024-02-06T03:50:43.771Z,100415.25
2024-02-06T03:51:45.450Z,100415.13
2024-02-06T03:52:47.217Z,100404.53
2024-02-06T03:53:48.866Z,100411.16
2024-02-06T03:54:50.561Z,100411.06
2024-02-06T03:55:53.158Z,100411.00
2024-02-06T03:56:54.959Z,100404.63
2024-02-06T03:57:56.640Z,100410.75
2024-02-06T03:58:58.461Z,100402.19
2024-02-06T04:00:00.445Z,100398.28
2024-02-06T04:01:02.270Z,100399.59
2024-02-06T04:02:04.779Z,100396.66
2024-02-06T04:03:06.659Z,100397.75
2024-02-06T04:04:08.392Z,100399.19
2024-02-06T04:05:10.092Z,100401.63
2024-02-06T04:06:16.059Z,100404.59
2024-02-06T04:07:19.150Z,100396.28
2024-02-06T04:08:21.038Z,100407.31
2024-02-06T04:09:22.719Z,100395.19
2024-02-06T04:10:24.551Z,100393.53
2024-02-06T04:11:26.456Z,100393.53
2024-02-06T04:12:28.325Z,100393.53
2024-02-06T04:13:29.989Z,100394.72
2024-02-06T04:14:31.919Z,100385.56
2024-02-06T04:15:33.981Z,100392.84
2024-02-06T04:16:35.945Z,100384.59
2024-02-06T04:17:37.934Z,100389.28
2024-02-06T04:18:40.966Z,100389.28
2024-02-06T04:19:42.822Z,100385.25
2024-02-06T04:20:44.613Z,100384.84
2024-02-06T04:21:46.274Z,100392.03
2024-02-06T04:22:48.011Z,100385.94
2024-02-06T04:23:49.697Z,100392.97
2024-02-06T04:24:51.605Z,100382.88
2024-02-06T04:25:53.447Z,100385.50
2024-02-06T04:26:55.101Z,100379.06
2024-02-06T04:27:57.723Z,100379.06
2024-02-06T04:28:59.730Z,100383.34
2024-02-06T04:30:01.395Z,100380.03
2024-02-06T04:31:03.158Z,100385.25
2024-02-06T04:32:05.393Z,100382.41
2024-02-06T04:33:07.093Z,100379.56
2024-02-06T04:34:09.561Z,100378.72
2024-02-06T04:35:12.002Z,100387.75
2024-02-06T04:36:13.796Z,100387.41
2024-02-06T04:37:15.483Z,100380.84
2024-02-06T04:38:18.692Z,100380.72
2024-02-06T04:39:20.381Z,100381.69
2024-02-06T04:40:23.938Z,100375.03
2024-02-06T04:41:25.999Z,100371.44
2024-02-06T04:42:27.645Z,100378.34
2024-02-06T04:43:29.357Z,100373.09
2024-02-06T04:44:31.085Z,100375.88
2024-02-06T04:45:33.305Z,100372.63
2024-02-06T04:46:35.027Z,100374.66
2024-02-06T04:47:36.830Z,100377.28
2024-02-06T04:48:38.676Z,100379.31
2024-02-06T04:49:40.524Z,100382.88
2024-02-06T04:50:42.647Z,100385.28
2024-02-06T04:51:44.345Z,100370.75
2024-02-06T04:52:47.048Z,100376.22
2024-02-06T04:53:48.790Z,100377.06
2024-02-06T04:54:50.740Z,100371.00
2024-02-06T04:55:53.212Z,100377.38
2024-02-06T04:56:54.848Z,100373.09
2024-02-06T04:57:56.556Z,100375.47
2024-02-06T04:58:58.381Z,100363.31
2024-02-06T05:00:00.144Z,100371.66
2024-02-06T05:01:02.003Z,100368.78
2024-02-06T05:02:03.876Z,100370.91
2024-02-06T05:03:05.637Z,100363.75
2024-02-06T05:04:08.892Z,100365.75
2024-02-06T05:05:10.759Z,100370.13
2024-02-06T05:06:12.905Z,100368.09
2024-02-06T05:07:15.189Z,100366.75
2024-02-06T05:08:16.879Z,100363.16
2024-02-06T05:09:18.633Z,100366.50
2024-02-06T05:10:20.982Z,100367.94
2024-02-06T05:11:22.710Z,100364.91
2024-02-06T05:12:25.610Z,100366.81
2024-02-06T05:13:28.088Z,100364.34
2024-02-06T05:14:30.584Z,100362.44
2024-02-06T05:15:32.347Z,100359.81
2024-02-06T05:16:34.134Z,100366.81
2024-02-06T05:17:36.204Z,100361.00
2024-02-06T05:18:38.046Z,100365.31
2024-02-06T05:19:43.806Z,100371.22
2024-02-06T05:20:45.716Z,100373.16
2024-02-06T05:21:47.722Z,100371.75
2024-02-06T05:22:49.504Z,100370.09
2024-02-06T05:23:51.188Z,100372.47
2024-02-06T05:24:52.972Z,100375.06
2024-02-06T05:25:54.814Z,100374.47
2024-02-06T05:26:56.520Z,100378.06
2024-02-06T05:27:59.965Z,100367.72
2024-02-06T05:29:02.200Z,100372.50
2024-02-06T05:30:06.179Z,100360.47
2024-02-06T05:31:07.973Z,100359.19
2024-02-06T05:32:09.768Z,100362.75
2024-02-06T05:33:11.601Z,100372.28
2024-02-06T05:34:13.474Z,100359.44
2024-02-06T05:35:15.224Z,100361.34
2024-02-06T05:36:16.950Z,100361.84
2024-02-06T05:37:19.249Z,100355.19
2024-02-06T05:38:20.958Z,100357.34
2024-02-06T05:39:22.656Z,100360.91
2024-02-06T05:40:24.348Z,100353.06
2024-02-06T05:41:26.052Z,100357.34
2024-02-06T05:42:27.717Z,100358.91
2024-02-06T05:43:29.461Z,100354.75
2024-02-06T05:44:31.124Z,100355.25
2024-02-06T05:45:33.237Z,100348.00
2024-02-06T05:46:35.041Z,100346.00
2024-02-06T05:47:36.823Z,100347.66
2024-02-06T05:48:40.720Z,100349.81
2024-02-06T05:49:43.107Z,100348.41
2024-02-06T05:50:44.868Z,100348.59
2024-02-06T05:51:46.632Z,100344.56
2024-02-06T05:52:48.668Z,100347.19
2024-02-06T05:53:51.169Z,100352.41
2024-02-06T05:54:52.916Z,100344.09
2024-02-06T05:55:54.727Z,100339.91
2024-02-06T05:56:56.521Z,100338.03
2024-02-06T05:57:58.265Z,100337.31
2024-02-06T05:59:02.088Z,100338.13
2024-02-06T06:00:07.754Z,100342.53
2024-02-06T06:01:10.878Z,100339.59
2024-02-06T06:02:12.689Z,100336.16
2024-02-06T06:03:14.437Z,100334.84
2024-02-06T06:04:17.289Z,100341.00
2024-02-06T06:05:19.177Z,100346.97
2024-02-06T06:06:21.102Z,100345.41
2024-02-06T06:07:22.828Z,100348.38
2024-02-06T06:08:24.771Z,100350.53
2024-02-06T06:09:26.461Z,100352.66
2024-02-06T06:10:28.222Z,100351.59
2024-02-06T06:11:29.910Z,100350.28
2024-02-06T06:12:31.550Z,100345.31
2024-02-06T06:13:34.767Z,100344.22
2024-02-06T06:14:36.552Z,100342.53
2024-02-06T06:15:38.518Z,100344.34
2024-02-06T06:16:40.265Z,100348.16
2024-02-06T06:17:42.006Z,100346.22
2024-02-06T06:18:43.724Z,100335.53
2024-02-06T06:19:45.550Z,100346.22
2024-02-06T06:20:47.424Z,100333.84
2024-02-06T06:21:49.120Z,100333.13
2024-02-06T06:22:50.875Z,100339.34
2024-02-06T06:23:52.517Z,100335.28
2024-02-06T06:24:54.253Z,100337.69
2024-02-06T06:25:57.676Z,100342.44
2024-02-06T06:26:59.340Z,100342.41
2024-02-06T06:28:01.041Z,100344.56
2024-02-06T06:29:03.129Z,100344.06
2024-02-06T06:30:06.713Z,100343.63
2024-02-06T06:31:09.814Z,100342.88
2024-02-06T06:32:11.482Z,100355.72
2024-02-06T06:33:13.301Z,100344.75
2024-02-06T06:34:15.062Z,100348.66
2024-02-06T06:35:16.952Z,100345.09
2024-02-06T06:36:19.452Z,100355.19
2024-02-06T06:37:21.242Z,100345.31
2024-02-06T06:38:22.913Z,100343.50
2024-02-06T06:39:24.606Z,100341.34
2024-02-06T06:40:28.252Z,100339.06
2024-02-06T06:41:30.010Z,100346.78
2024-02-06T06:42:32.383Z,100346.78
2024-02-06T06:43:34.104Z,100337.97
2024-02-06T06:44:35.796Z,100344.75
2024-02-06T06:45:37.563Z,100352.22
2024-02-06T06:46:39.458Z,100343.16
2024-02-06T06:47:41.674Z,100349.38
2024-02-06T06:48:43.419Z,100348.16
2024-02-06T06:49:45.195Z,100350.00
2024-02-06T06:50:46.873Z,100350.88
2024-02-06T06:51:48.648Z,100343.69
2024-02-06T06:52:50.469Z,100353.91
2024-02-06T06:53:52.166Z,100347.59
2024-02-06T06:54:53.946Z,100348.75
2024-02-06T06:55:55.799Z,100347.78
2024-02-06T06:56:57.494Z,100335.84
2024-02-06T06:57:59.227Z,100336.13
2024-02-06T06:59:01.021Z,100338.50
2024-02-06T07:00:04.238Z,100344.97
2024-02-06T07:01:06.715Z,100346.97
2024-02-06T07:02:09.315Z,100345.72
2024-02-06T07:03:11.115Z,100351.69
2024-02-06T07:04:12.856Z,100348.69
2024-02-06T07:05:14.712Z,100338.75
2024-02-06T07:06:16.427Z,100344.84
2024-02-06T07:07:19.154Z,100338.28
2024-02-06T07:08:20.901Z,100339.41
2024-02-06T07:09:23.777Z,100335.97
2024-02-06T07:10:25.592Z,100332.31
2024-02-06T07:11:27.364Z,100338.97
2024-02-06T07:12:29.079Z,100336.22
2024-02-06T07:13:30.930Z,100327.81
2024-02-06T07:14:33.658Z,100330.75
2024-02-06T07:15:35.637Z,100329.53
2024-02-06T07:16:37.377Z,100322.19
2024-02-06T07:17:39.160Z,100318.78
2024-02-06T07:18:40.928Z,100332.84
2024-02-06T07:19:42.778Z,100334.66
2024-02-06T07:20:44.608Z,100327.72
2024-02-06T07:21:58.920Z,100333.81
2024-02-06T07:23:00.747Z,100336.84
2024-02-06T07:24:02.522Z,100331.81
2024-02-06T07:25:05.332Z,100337.84
2024-02-06T07:26:12.219Z,100337.09
2024-02-06T07:27:13.940Z,100332.81
2024-02-06T07:28:15.694Z,100335.16
2024-02-06T07:29:17.411Z,100343.63
2024-02-06T07:30:27.458Z,100334.91
2024-02-06T07:31:35.726Z,100339.81
2024-02-06T07:32:40.858Z,100340.22
2024-02-06T07:33:44.914Z,100334.97
2024-02-06T07:34:46.729Z,100329.13
2024-02-06T07:35:48.462Z,100338.22
2024-02-06T07:36:50.242Z,100335.41
2024-02-06T07:37:51.936Z,100338.41
2024-02-06T07:38:53.967Z,100340.19
2024-02-06T07:39:55.689Z,100337.19
2024-02-06T07:40:57.619Z,100340.00
2024-02-06T07:41:59.722Z,100343.81
2024-02-06T07:43:01.522Z,100340.38
2024-02-06T07:44:05.186Z,100334.19
2024-02-06T07:45:08.145Z,100342.88
2024-02-06T07:46:09.836Z,100346.28
2024-02-06T07:47:11.578Z,100342.53
2024-02-06T07:48:13.423Z,100339.78
2024-02-06T07:49:15.250Z,100341.25
2024-02-06T07:50:17.160Z,100338.19
2024-02-06T07:51:18.860Z,100339.31
2024-02-06T07:52:20.914Z,100338.66
2024-02-06T07:53:22.747Z,100340.69
2024-02-06T07:54:24.443Z,100336.69
2024-02-06T07:55:26.254Z,100342.63
2024-02-06T07:56:32.959Z,100335.84
2024-02-06T07:57:35.491Z,100344.56
2024-02-06T07:58:37.444Z,100346.84
2024-02-06T07:59:39.574Z,100340.47
2024-02-06T08:00:41.259Z,100341.44
2024-02-06T08:01:43.363Z,100348.69
2024-02-06T08:02:45.100Z,100340.88
2024-02-06T08:03:46.849Z,100337.66
2024-02-06T08:04:49.602Z,100345.78
2024-02-06T08:06:53.099Z,100355.13
2024-02-06T08:07:54.869Z,100344.91
2024-02-06T08:09:06.748Z,100354.38
2024-02-06T08:10:09.960Z,100348.03
2024-02-06T08:11:11.693Z,100349.84
2024-02-06T08:12:13.385Z,100347.84
2024-02-06T08:13:15.160Z,100347.66
2024-02-06T08:14:18.250Z,100346.16
2024-02-06T08:15:19.952Z,100344.84
2024-02-06T08:16:21.710Z,100346.84
2024-02-06T08:17:23.417Z,100354.28
2024-02-06T08:18:25.254Z,100353.06
2024-02-06T08:19:27.485Z,100346.28
2024-02-06T08:20:29.311Z,100353.97
2024-02-06T08:21:31.234Z,100348.59
2024-02-06T08:22:33.080Z,100350.25
2024-02-06T08:23:34.770Z,100350.56
2024-02-06T08:24:36.448Z,100349.88
2024-02-06T08:25:38.152Z,100349.09
2024-02-06T08:26:40.490Z,100352.94
2024-02-06T08:27:42.312Z,100351.16
2024-02-06T08:28:44.060Z,100351.41
2024-02-06T08:29:45.821Z,100353.66
2024-02-06T08:30:49.548Z,100352.84
2024-02-06T08:31:51.337Z,100347.88
2024-02-06T08:32:53.161Z,100356.63
2024-02-06T08:33:55.650Z,100362.28
2024-02-06T08:34:57.466Z,100363.59
2024-02-06T08:35:59.387Z,100353.66
2024-02-06T08:37:02.015Z,100349.25
2024-02-06T08:38:05.047Z,100354.41
2024-02-06T08:39:07.868Z,100355.72
2024-02-06T08:40:12.033Z,100358.06
2024-02-06T08:41:13.829Z,100355.94
2024-02-06T08:42:15.573Z,100364.00
2024-02-06T08:43:18.728Z,100365.75
2024-02-06T08:44:20.919Z,100366.69
2024-02-06T08:45:22.785Z,100365.97
2024-02-06T08:46:24.778Z,100357.25
2024-02-06T08:47:26.994Z,100355.78
2024-02-06T08:48:31.611Z,100361.56
2024-02-06T08:49:35.920Z,100356.13
2024-02-06T08:50:37.778Z,100353.84
2024-02-06T08:51:39.589Z,100350.41
2024-02-06T08:52:43.041Z,100347.44
2024-02-06T08:53:44.749Z,100343.97
2024-02-06T08:54:46.438Z,100344.81
2024-02-06T08:55:48.189Z,100345.31
2024-02-06T08:56:49.992Z,100348.78
2024-02-06T08:57:52.680Z,100354.75
2024-02-06T08:58:55.148Z,100358.44
2024-02-06T08:59:57.360Z,100353.13
2024-02-06T09:00:59.177Z,100355.13
2024-02-06T09:02:04.420Z,100356.44
2024-02-06T09:03:06.270Z,100361.25
2024-02-06T09:04:08.864Z,100377.59
2024-02-06T09:05:11.127Z,100377.59
2024-02-06T09:06:13.088Z,100376.78
2024-02-06T09:07:14.954Z,100386.56
2024-02-06T09:08:17.567Z,100390.69
2024-02-06T09:09:22.506Z,100377.13
2024-02-06T09:10:26.740Z,100386.72
2024-02-06T09:11:29.069Z,100390.22
2024-02-06T09:12:31.175Z,100385.22
2024-02-06T09:13:33.054Z,100384.41
2024-02-06T09:14:38.972Z,100380.25
2024-02-06T09:15:42.827Z,100369.66
2024-02-06T09:16:44.643Z,100365.03
2024-02-06T09:17:47.765Z,100370.81
2024-02-06T09:18:58.305Z,100371.97
2024-02-06T09:20:01.344Z,100374.97
2024-02-06T09:21:03.405Z,100371.97
2024-02-06T09:22:05.104Z,100372.50
2024-02-06T09:23:06.842Z,100366.69
2024-02-06T09:24:08.885Z,100362.72
2024-02-06T09:25:11.574Z,100375.63
2024-02-06T09:26:16.225Z,100367.69
2024-02-06T09:27:18.349Z,100372.66
2024-02-06T09:28:20.113Z,100367.69
2024-02-06T09:29:23.688Z,100362.72
2024-02-06T09:30:25.587Z,100374.63
2024-02-06T09:31:27.377Z,100370.00
2024-02-06T09:32:29.892Z,100382.56
2024-02-06T09:33:31.951Z,100387.88
2024-02-06T09:34:33.950Z,100386.56
2024-02-06T09:35:35.822Z,100383.91
2024-02-06T09:36:39.543Z,100392.00
2024-02-06T09:37:41.380Z,100390.84
2024-02-06T09:38:43.158Z,100392.69
2024-02-06T09:39:45.223Z,100394.00
2024-02-06T09:40:48.482Z,100389.53
2024-02-06T09:41:51.319Z,100395.66
2024-02-06T09:42:54.252Z,100389.69
2024-02-06T09:43:56.480Z,100383.06
2024-02-06T09:44:59.908Z,100381.56
2024-02-06T09:46:02.039Z,100388.06
2024-02-06T09:47:05.168Z,100380.59
2024-02-06T09:48:08.905Z,100382.22
2024-02-06T09:49:10.909Z,100379.72
2024-02-06T09:50:13.592Z,100368.91
2024-02-06T09:51:17.263Z,100379.69
2024-02-06T09:52:23.352Z,100381.13
2024-02-06T09:53:27.916Z,100376.81
2024-02-06T09:54:32.536Z,100379.78
2024-02-06T09:55:34.411Z,100371.00
2024-02-06T09:56:37.177Z,100374.13
2024-02-06T09:57:42.141Z,100380.06
2024-02-06T09:58:44.791Z,100366.81
2024-02-06T09:59:51.165Z,100366.63
2024-02-06T10:00:54.813Z,100366.28
2024-02-06T10:01:56.768Z,100354.13
2024-02-06T10:03:01.351Z,100353.56
2024-02-06T10:04:04.985Z,100355.72
2024-02-06T10:05:17.313Z,100355.47
2024-02-06T10:06:24.995Z,100351.13
2024-02-06T10:07:27.066Z,100353.22
2024-02-06T10:08:28.778Z,100356.34
2024-02-06T10:09:34.512Z,100353.50
2024-02-06T10:10:37.208Z,100354.81
2024-02-06T10:11:40.667Z,100350.84
2024-02-06T10:12:44.593Z,100351.97
2024-02-06T10:13:47.118Z,100344.97
2024-02-06T10:14:48.890Z,100357.50
2024-02-06T10:15:52.913Z,100349.03
2024-02-06T10:16:54.735Z,100346.63
2024-02-06T10:17:57.923Z,100345.06
2024-02-06T10:19:01.241Z,100344.63
2024-02-06T10:20:08.668Z,100340.25
2024-02-06T10:21:10.545Z,100334.22
2024-02-06T10:22:13.945Z,100330.28
2024-02-06T10:23:18.697Z,100337.31
2024-02-06T10:24:20.675Z,100340.72
2024-02-06T10:25:22.642Z,100339.81
2024-02-06T10:26:24.292Z,100326.16
2024-02-06T10:27:27.317Z,100335.25
2024-02-06T10:28:29.265Z,100335.97
2024-02-06T10:29:33.751Z,100327.47
2024-02-06T10:30:39.337Z,100326.72
2024-02-06T10:31:41.519Z,100326.72
2024-02-06T10:32:43.336Z,100330.66
2024-02-06T10:33:45.309Z,100326.00
2024-02-06T10:34:48.301Z,100327.00
2024-02-06T10:35:50.696Z,100332.25
2024-02-06T10:37:00.677Z,100329.84
2024-02-06T10:38:04.330Z,100330.78
2024-02-06T10:39:07.434Z,100330.78
2024-02-06T10:40:13.180Z,100327.38
2024-02-06T10:41:24.726Z,100334.44
2024-02-06T10:43:45.696Z,100321.72
2024-02-06T10:45:00.972Z,100326.44
2024-02-06T10:46:05.654Z,100321.84
2024-02-06T10:47:07.713Z,100322.13
2024-02-06T10:48:10.065Z,100316.56
2024-02-06T10:49:11.966Z,100313.97
2024-02-06T10:50:15.173Z,100307.44
2024-02-06T10:51:28.508Z,100308.66
2024-02-06T10:52:32.269Z,100311.56
2024-02-06T10:53:34.061Z,100308.91
2024-02-06T10:54:37.144Z,100302.38
2024-02-06T10:55:39.734Z,100308.09
2024-02-06T10:56:54.077Z,100308.31
2024-02-06T10:58:18.742Z,100303.22
2024-02-06T10:59:34.227Z,100295.22
2024-02-06T11:00:38.542Z,100300.94
2024-02-06T11:01:41.547Z,100302.47
2024-02-06T11:02:44.939Z,100302.47
2024-02-06T11:03:58.553Z,100305.94
2024-02-06T11:05:23.260Z,100306.78
2024-02-06T11:06:31.598Z,100301.06
2024-02-06T11:07:51.068Z,100293.63
2024-02-06T11:08:55.143Z,100300.53
2024-02-06T11:10:02.245Z,100302.09
2024-02-06T11:11:05.276Z,100294.72
2024-02-06T11:12:15.328Z,100297.19
2024-02-06T11:13:28.709Z,100299.31
2024-02-06T11:14:31.711Z,100301.59
2024-02-06T11:15:37.662Z,100296.31
2024-02-06T11:16:49.241Z,100297.75
2024-02-06T11:17:53.537Z,100289.50
2024-02-06T11:19:12.938Z,100290.81
2024-02-06T11:20:22.822Z,100291.09
2024-02-06T11:21:28.669Z,100290.28
2024-02-06T11:22:42.146Z,100289.25
2024-02-06T11:23:46.594Z,100284.06
2024-02-06T11:24:49.616Z,100283.06
2024-02-06T11:25:53.635Z,100289.00
2024-02-06T11:26:56.611Z,100283.09
2024-02-06T11:28:00.715Z,100282.28
2024-02-06T11:29:08.112Z,100274.63
2024-02-06T11:30:11.997Z,100281.00
2024-02-06T11:31:14.374Z,100276.25
2024-02-06T11:32:19.611Z,100279.22
2024-02-06T11:33:35.383Z,100275.94
2024-02-06T11:34:56.852Z,100277.00
2024-02-06T11:36:18.820Z,100267.50
2024-02-06T11:37:27.913Z,100271.63
2024-02-06T11:38:29.823Z,100266.31
2024-02-06T11:39:31.811Z,100264.50
2024-02-06T11:40:34.797Z,100263.50
2024-02-06T11:41:37.629Z,100278.69
2024-02-06T11:42:40.627Z,100273.31
2024-02-06T11:43:42.808Z,100269.00
2024-02-06T11:44:44.646Z,100279.47
2024-02-06T11:45:46.344Z,100276.81
2024-02-06T11:46:50.893Z,100268.81
2024-02-06T11:48:02.710Z,100269.66
2024-02-06T11:49:09.245Z,100262.31
2024-02-06T11:50:14.129Z,100266.81
2024-02-06T11:51:26.691Z,100268.44
2024-02-06T11:52:28.656Z,100265.22
2024-02-06T11:53:32.825Z,100266.47
2024-02-06T11:54:34.651Z,100262.78
2024-02-06T11:55:37.450Z,100267.09
2024-02-06T11:56:41.141Z,100268.94
2024-02-06T11:57:43.219Z,100268.72
2024-02-06T11:58:45.978Z,100262.78
2024-02-06T11:59:48.724Z,100265.31